KDEH/DEH METAR and TAF weather

Enter ICAO airport designator
Station Type Date Time Source
KDEH METAR 2020/07/10 18:35 UTC NOAA

KDEH 101835Z AUTO 32009KT 10SM CLR 26/18 A2996 RMK AO2


Station Type Date Time Source
KDEH Decoded METAR 2020/07/10 18:35 UTC NOAA

Decorah, IA, United States (KDEH) 43-17N 091-44W
Jul 10, 2020 - 02:35 PM EDT / 2020.07.10 1835 UTC
Wind: from the NW (320 degrees) at 10 MPH (9 KT):0
Visibility: 10 mile(s):0
Sky conditions: clear
Temperature: 78 F (26 C)
Dew Point: 64 F (18 C)
Relative Humidity: 61%
Pressure (altimeter): 29.96 in. Hg (1014 hPa)
ob: KDEH 101835Z AUTO 32009KT 10SM CLR 26/18 A2996 RMK AO2
cycle: 18

Station Type Date Time Source
KDEH TAF UTC NOAA

Error!

Example: see airport list